Time;durP1;ratioP1;P1;durP2;ratioP2;P2;SDS_P1;SDS_P2;PMS_P1;PMS_P2;Temp;Humidity;BMP_temperature;BMP_pressure;BME280_temperature;BME280_humidity;BME280_pressure;Samples;Min_cycle;Max_cycle;Signal;HPM_P1;HPM_P2
2021/08/05 00:01:05;;;;;;;4.57;2.00;;;;;;;13.63;100.00;100339.75;4992674;28;20379;-83
2021/08/05 00:03:30;;;;;;;6.55;2.92;;;;;;;13.62;100.00;100327.66;4992568;28;20026;-83
2021/08/05 00:05:55;;;;;;;5.15;2.05;;;;;;;13.67;100.00;100328.31;4992520;28;20049;-83
2021/08/05 00:08:21;;;;;;;7.35;1.80;;;;;;;13.67;100.00;100318.78;4992850;28;20023;-83
2021/08/05 00:10:46;;;;;;;4.45;2.10;;;;;;;13.64;100.00;100326.69;4993938;28;20475;-83
2021/08/05 00:13:11;;;;;;;5.22;1.77;;;;;;;13.63;100.00;100326.72;4992496;28;20395;-83
2021/08/05 00:15:37;;;;;;;6.75;1.90;;;;;;;13.63;100.00;100319.75;4992618;28;20025;-83
2021/08/05 00:18:03;;;;;;;5.15;2.13;;;;;;;13.63;100.00;100317.16;4993820;28;20493;-83
2021/08/05 00:20:28;;;;;;;4.30;1.58;;;;;;;13.54;100.00;100310.50;4992412;28;20029;-83
2021/08/05 00:22:53;;;;;;;5.20;2.08;;;;;;;13.52;100.00;100311.47;4994926;28;20056;-83
2021/08/05 00:25:19;;;;;;;5.45;1.80;;;;;;;13.52;100.00;100312.31;4996432;28;20022;-83
2021/08/05 00:27:44;;;;;;;5.63;2.47;;;;;;;13.52;100.00;100308.88;4996454;28;20479;-83
2021/08/05 00:30:10;;;;;;;8.85;2.47;;;;;;;13.59;100.00;100303.38;4996254;28;20022;-83
2021/08/05 00:32:36;;;;;;;5.93;2.30;;;;;;;13.59;100.00;100292.97;4996656;28;20085;-83
2021/08/05 00:35:01;;;;;;;5.72;1.95;;;;;;;13.70;100.00;100294.31;4997433;28;20054;-83
2021/08/05 00:37:26;;;;;;;7.13;2.35;;;;;;;13.70;100.00;100299.53;4997049;28;20024;-83
2021/08/05 00:39:52;;;;;;;6.25;2.20;;;;;;;13.70;100.00;100297.81;4997378;28;20026;-83
2021/08/05 00:42:17;;;;;;;6.03;2.15;;;;;;;13.71;100.00;100298.66;4997657;28;20026;-83
2021/08/05 00:44:43;;;;;;;5.60;2.00;;;;;;;13.67;100.00;100300.53;4996066;28;20470;-83
2021/08/05 00:47:09;;;;;;;5.43;2.10;;;;;;;13.63;100.00;100298.91;4996055;28;20023;-83
2021/08/05 00:49:35;;;;;;;5.38;2.20;;;;;;;13.67;100.00;100295.31;4995983;28;20022;-83
2021/08/05 00:52:01;;;;;;;6.32;2.00;;;;;;;13.62;100.00;100296.38;4997022;28;20026;-83
2021/08/05 00:54:26;;;;;;;5.63;2.05;;;;;;;13.58;100.00;100299.09;4997195;28;20030;-83
2021/08/05 00:56:51;;;;;;;6.40;1.77;;;;;;;13.65;100.00;100289.28;4997228;28;20106;-83
2021/08/05 00:59:16;;;;;;;5.70;2.22;;;;;;;13.62;100.00;100291.16;4995791;28;20033;-83
2021/08/05 01:01:56;;;;;;;4.80;1.90;;;;;;;13.65;100.00;100284.09;4996817;28;20026;-83
2021/08/05 01:04:21;;;;;;;4.53;1.85;;;;;;;13.62;100.00;100288.56;4997038;28;20454;-83
2021/08/05 01:07:02;;;;;;;3.83;1.60;;;;;;;13.63;100.00;100285.03;4995704;28;20025;-83
2021/08/05 01:09:34;;;;;;;5.95;2.17;;;;;;;13.63;100.00;100278.06;4996892;28;20594;-83
2021/08/05 01:12:22;;;;;;;6.82;2.10;;;;;;;13.55;100.00;100278.34;4996880;28;20027;-83
2021/08/05 01:15:07;;;;;;;6.18;1.90;;;;;;;13.59;100.00;100277.31;4995587;28;20026;-83
2021/08/05 01:17:37;;;;;;;6.22;2.00;;;;;;;13.57;100.00;100284.34;4996881;28;20418;-83
2021/08/05 01:20:05;;;;;;;6.40;2.70;;;;;;;13.61;100.00;100273.81;4995291;28;20556;-83
2021/08/05 01:22:39;;;;;;;7.05;2.28;;;;;;;13.62;100.00;100283.34;4995389;28;20038;-83
2021/08/05 01:25:09;;;;;;;4.85;2.22;;;;;;;13.67;100.00;100276.19;4996683;28;20042;-83
2021/08/05 01:27:35;;;;;;;5.22;2.10;;;;;;;13.61;100.00;100273.81;4995586;28;20046;-83
2021/08/05 01:30:02;;;;;;;5.22;2.38;;;;;;;13.61;100.00;100274.69;4995176;28;20105;-83
2021/08/05 01:32:28;;;;;;;4.88;2.17;;;;;;;13.63;100.00;100275.44;4995155;28;20030;-83
2021/08/05 01:34:54;;;;;;;5.03;1.85;;;;;;;13.76;100.00;100274.13;4994684;28;20027;-83
2021/08/05 01:37:22;;;;;;;12.65;2.97;;;;;;;13.73;100.00;100276.84;4995141;28;20026;-83
2021/08/05 01:39:47;;;;;;;5.78;1.85;;;;;;;13.73;100.00;100274.25;4994866;28;20022;-83
2021/08/05 01:42:17;;;;;;;5.82;2.10;;;;;;;13.72;100.00;100276.88;4995005;28;20029;-83
2021/08/05 01:44:45;;;;;;;6.95;2.45;;;;;;;13.65;100.00;100265.00;4996221;28;20068;-83
2021/08/05 01:47:12;;;;;;;5.32;1.80;;;;;;;13.64;100.00;100271.09;4994883;28;20036;-83
2021/08/05 01:49:38;;;;;;;9.60;2.50;;;;;;;13.58;100.00;100266.97;4995204;28;20029;-83
2021/08/05 01:52:04;;;;;;;7.88;2.38;;;;;;;13.60;100.00;100267.75;4995945;28;20497;-83
2021/08/05 01:54:29;;;;;;;5.38;2.15;;;;;;;13.62;100.00;100271.16;4995941;28;20030;-83
2021/08/05 01:56:55;;;;;;;9.95;2.58;;;;;;;13.63;100.00;100272.00;4996131;28;20046;-83
2021/08/05 01:59:20;;;;;;;5.97;2.05;;;;;;;13.61;100.00;100273.81;4995459;28;20026;-83
2021/08/05 02:01:45;;;;;;;8.60;2.30;;;;;;;13.59;100.00;100273.88;4994631;28;20439;-83
2021/08/05 02:04:16;;;;;;;5.57;2.08;;;;;;;13.65;100.00;100272.81;4994636;28;20022;-83
2021/08/05 02:06:55;;;;;;;7.10;2.45;;;;;;;13.65;100.00;100271.03;4994650;28;20065;-83
2021/08/05 02:09:26;;;;;;;5.25;2.40;;;;;;;13.62;100.00;100270.31;4995872;28;20027;-83
2021/08/05 02:11:54;;;;;;;5.03;2.40;;;;;;;13.65;100.00;100262.38;4994546;28;20113;-83
2021/08/05 02:14:21;;;;;;;8.65;2.25;;;;;;;13.63;100.00;100257.22;4995643;28;20023;-83
2021/08/05 02:16:48;;;;;;;4.50;2.10;;;;;;;13.68;100.00;100264.88;4995865;28;20026;-83
2021/08/05 02:19:15;;;;;;;4.97;2.15;;;;;;;13.64;100.00;100261.53;4994482;28;20033;-83
2021/08/05 02:21:42;;;;;;;7.57;2.13;;;;;;;13.66;100.00;100261.47;4994142;28;20117;-83
2021/08/05 02:24:07;;;;;;;5.18;2.20;;;;;;;13.64;100.00;100263.28;4994261;28;20030;-83
2021/08/05 02:26:34;;;;;;;5.70;2.30;;;;;;;13.65;100.00;100258.03;4994297;28;20030;-83
2021/08/05 02:29:00;;;;;;;5.38;2.00;;;;;;;13.72;100.00;100262.09;4994343;28;20462;-83
2021/08/05 02:31:25;;;;;;;6.38;2.45;;;;;;;13.71;100.00;100255.19;4995297;28;20085;-83
2021/08/05 02:33:51;;;;;;;6.75;2.45;;;;;;;13.70;100.00;100252.63;4994026;28;20092;-83
2021/08/05 02:36:17;;;;;;;5.50;1.95;;;;;;;13.61;100.00;100247.75;4994055;28;20507;-83
2021/08/05 02:38:42;;;;;;;5.07;2.20;;;;;;;13.64;100.00;100253.72;4995107;28;20026;-83
2021/08/05 02:41:08;;;;;;;5.95;2.03;;;;;;;13.61;100.00;100256.44;4993801;28;20081;-83
2021/08/05 02:43:35;;;;;;;6.00;2.25;;;;;;;13.61;100.00;100252.94;4993849;28;20029;-83
2021/08/05 02:46:02;;;;;;;8.10;2.20;;;;;;;13.54;100.00;100253.16;4994125;28;20022;-83
2021/08/05 02:48:29;;;;;;;6.72;2.13;;;;;;;13.56;100.00;100246.16;4994999;28;20033;-83
2021/08/05 02:50:56;;;;;;;9.10;2.40;;;;;;;13.52;100.00;100241.97;4994907;28;20482;-83
2021/08/05 02:53:22;;;;;;;5.65;1.90;;;;;;;13.53;100.00;100243.66;4994775;28;20096;-83
2021/08/05 02:55:49;;;;;;;4.90;1.83;;;;;;;13.49;100.00;100234.28;4994829;28;20032;-83
2021/08/05 02:58:15;;;;;;;5.28;1.98;;;;;;;13.51;100.00;100240.25;4993484;28;20033;-83
2021/08/05 03:00:42;;;;;;;6.43;2.10;;;;;;;13.54;100.00;100231.47;4994746;28;20089;-83
2021/08/05 03:03:07;;;;;;;6.80;1.90;;;;;;;13.51;100.00;100237.66;4993605;28;20450;-83
2021/08/05 03:05:32;;;;;;;8.75;2.20;;;;;;;13.54;100.00;100234.09;4993380;28;20018;-83
2021/08/05 03:07:58;;;;;;;7.78;2.50;;;;;;;13.52;100.00;100234.16;4994501;28;20034;-83
2021/08/05 03:10:23;;;;;;;8.80;2.03;;;;;;;13.53;100.00;100225.44;4993327;28;20022;-83
2021/08/05 03:12:48;;;;;;;5.35;2.05;;;;;;;13.55;100.00;100226.22;4994511;28;20022;-83
2021/08/05 03:15:14;;;;;;;6.50;2.35;;;;;;;13.50;100.00;100222.94;4994438;28;20582;-83
2021/08/05 03:17:39;;;;;;;4.53;2.00;;;;;;;13.54;100.00;100224.50;4993336;28;20022;-83
2021/08/05 03:20:06;;;;;;;5.97;2.00;;;;;;;13.51;100.00;100226.38;4993232;28;20026;-83
2021/08/05 03:22:31;;;;;;;6.32;1.98;;;;;;;13.52;100.00;100223.72;4994491;28;20113;-83
2021/08/05 03:24:57;;;;;;;5.90;1.85;;;;;;;13.50;100.00;100222.09;4993727;28;20057;-83
2021/08/05 03:27:22;;;;;;;5.38;1.83;;;;;;;13.48;100.00;100218.66;4993860;28;20108;-83
2021/08/05 03:29:47;;;;;;;6.03;1.75;;;;;;;13.52;100.00;100212.47;4994428;28;20388;-83
2021/08/05 03:32:12;;;;;;;7.18;2.00;;;;;;;13.51;100.00;100211.59;4994182;28;20033;-83
2021/08/05 03:34:38;;;;;;;6.10;2.22;;;;;;;13.48;100.00;100216.91;4994545;28;20403;-83
2021/08/05 03:37:03;;;;;;;7.32;2.03;;;;;;;13.49;100.00;100207.38;4994204;28;20113;-83
2021/08/05 03:39:28;;;;;;;5.88;1.88;;;;;;;13.48;100.00;100211.69;4993369;28;20031;-83
2021/08/05 03:41:54;;;;;;;4.80;2.00;;;;;;;13.48;100.00;100206.50;4994454;28;20092;-83
2021/08/05 03:44:19;;;;;;;5.68;1.88;;;;;;;13.47;100.00;100204.81;4993248;28;20028;-83
2021/08/05 03:46:44;;;;;;;5.07;2.00;;;;;;;13.45;100.00;100211.81;4994293;28;20036;-83
2021/08/05 03:49:10;;;;;;;5.63;2.20;;;;;;;13.46;100.00;100202.25;4994010;28;20029;-83
2021/08/05 03:51:35;;;;;;;6.43;1.90;;;;;;;13.47;100.00;100204.81;4994017;28;20030;-83
2021/08/05 03:54:01;;;;;;;4.72;1.88;;;;;;;13.50;100.00;100204.69;4992699;28;20026;-83
2021/08/05 03:56:26;;;;;;;4.88;1.90;;;;;;;13.44;100.00;100207.50;4993802;28;20022;-83
2021/08/05 03:58:51;;;;;;;5.30;1.95;;;;;;;13.49;100.00;100208.22;4992587;28;20023;-83
2021/08/05 04:01:17;;;;;;;6.18;2.13;;;;;;;13.49;100.00;100213.41;4992628;28;20466;-83
2021/08/05 04:03:42;;;;;;;10.55;2.42;;;;;;;13.51;100.00;100208.13;4992753;28;20089;-83
2021/08/05 04:06:08;;;;;;;4.97;1.88;;;;;;;13.45;100.00;100205.75;4994050;28;20085;-83
2021/08/05 04:08:34;;;;;;;4.57;1.80;;;;;;;13.52;100.00;100205.50;4993843;28;20029;-83
2021/08/05 04:10:59;;;;;;;4.82;1.80;;;;;;;13.50;100.00;100207.28;4993043;28;20046;-83
2021/08/05 04:13:24;;;;;;;5.57;2.00;;;;;;;13.51;100.00;100202.94;4992666;28;20022;-83
2021/08/05 04:15:50;;;;;;;4.90;2.35;;;;;;;13.49;100.00;100210.81;4992551;28;20117;-83
2021/08/05 04:18:15;;;;;;;6.00;1.98;;;;;;;13.48;100.00;100213.47;4993634;28;20030;-83
2021/08/05 04:20:40;;;;;;;5.47;1.73;;;;;;;13.46;100.00;100208.31;4992232;28;20037;-83
2021/08/05 04:23:06;;;;;;;4.30;2.00;;;;;;;13.46;100.00;100208.31;4993732;28;20386;-83
2021/08/05 04:25:31;;;;;;;5.40;1.80;;;;;;;13.48;100.00;100203.88;4993710;28;20022;-83
2021/08/05 04:27:56;;;;;;;7.63;2.15;;;;;;;13.47;100.00;100210.00;4992372;28;20028;-83
2021/08/05 04:30:21;;;;;;;8.63;2.65;;;;;;;13.49;100.00;100202.16;4993578;28;20018;-83
2021/08/05 04:32:48;;;;;;;6.35;2.00;;;;;;;13.49;100.00;100205.59;4992447;28;20397;-83
2021/08/05 04:35:14;;;;;;;4.35;2.00;;;;;;;13.49;100.00;100207.38;4992719;28;20050;-83
2021/08/05 04:37:52;;;;;;;5.47;1.60;;;;;;;13.51;100.00;100211.59;4993566;28;20429;-83
2021/08/05 04:40:18;;;;;;;4.68;1.75;;;;;;;13.51;100.00;100200.31;4993523;28;20027;-83
2021/08/05 04:42:43;;;;;;;4.88;1.85;;;;;;;13.54;100.00;100202.81;4993532;28;20030;-83
2021/08/05 04:45:10;;;;;;;7.50;2.00;;;;;;;13.56;100.00;100201.88;4992367;28;20092;-83
2021/08/05 04:47:49;;;;;;;5.57;1.80;;;;;;;13.57;100.00;100197.50;4992659;28;20022;-83
2021/08/05 04:50:15;;;;;;;4.63;1.90;;;;;;;13.59;100.00;100199.16;4992205;28;20026;-83
2021/08/05 04:52:41;;;;;;;3.85;1.80;;;;;;;13.64;100.00;100198.13;4993709;28;20037;-83
2021/08/05 04:55:06;;;;;;;4.68;1.75;;;;;;;13.64;100.00;100205.94;4993466;28;20026;-83
2021/08/05 04:57:31;;;;;;;4.32;1.90;;;;;;;13.64;100.00;100203.34;4992182;28;20031;-83
2021/08/05 04:59:57;;;;;;;5.00;1.70;;;;;;;13.66;100.00;100204.97;4993487;28;20425;-83
2021/08/05 05:02:22;;;;;;;6.35;1.63;;;;;;;13.63;100.00;100204.25;4992134;28;20041;-83
2021/08/05 05:04:47;;;;;;;4.60;1.80;;;;;;;13.72;100.00;100201.31;4993230;28;20084;-83
2021/08/05 05:07:12;;;;;;;4.60;1.80;;;;;;;13.72;100.00;100199.53;4993601;28;20364;-83
2021/08/05 05:09:38;;;;;;;6.05;1.70;;;;;;;13.70;100.00;100206.59;4994220;28;20018;-83
2021/08/05 05:12:03;;;;;;;3.85;1.85;;;;;;;13.73;100.00;100198.66;4995501;28;20080;-83
2021/08/05 05:14:29;;;;;;;6.40;1.73;;;;;;;13.81;100.00;100198.34;4995872;28;20029;-83
2021/08/05 05:16:54;;;;;;;7.25;1.92;;;;;;;13.72;100.00;100201.31;4996471;28;20038;-83
2021/08/05 05:19:20;;;;;;;6.10;1.90;;;;;;;13.79;100.00;100200.16;4996552;28;20054;-83
2021/08/05 05:21:46;;;;;;;8.15;1.75;;;;;;;13.91;100.00;100189.28;4996547;28;20068;-83
2021/08/05 05:24:11;;;;;;;4.32;1.48;;;;;;;13.76;100.00;100200.28;4996685;28;20486;-83
2021/08/05 05:26:36;;;;;;;5.72;1.60;;;;;;;13.84;100.00;100189.56;4995400;28;20065;-83
2021/08/05 05:29:02;;;;;;;6.38;2.10;;;;;;;13.87;100.00;100187.69;4996600;28;20027;-83
2021/08/05 05:31:27;;;;;;;5.05;1.90;;;;;;;13.89;100.00;100190.25;4995084;28;20125;-83
2021/08/05 05:33:52;;;;;;;7.18;1.80;;;;;;;14.01;100.00;100195.84;4995401;28;20076;-83
2021/08/05 05:36:17;;;;;;;6.03;1.88;;;;;;;14.10;100.00;100196.38;4995114;28;20029;-83
2021/08/05 05:38:43;;;;;;;5.30;2.17;;;;;;;14.22;100.00;100188.97;4996306;28;20034;-83
2021/08/05 05:41:08;;;;;;;4.78;2.08;;;;;;;14.32;100.00;100199.03;5008792;22;20039;-84
2021/08/05 05:43:33;;;;;;;4.78;1.83;;;;;;;14.26;100.00;100195.75;4982142;28;20047;-83
2021/08/05 05:45:58;;;;;;;7.15;1.95;;;;;;;14.16;100.00;100197.03;4982685;28;20494;-83
2021/08/05 05:48:24;;;;;;;5.45;1.77;;;;;;;14.16;100.00;100193.53;4980491;28;20030;-84
2021/08/05 05:50:49;;;;;;;5.93;1.90;;;;;;;14.10;100.00;100189.44;4978443;28;20027;-84
2021/08/05 05:53:15;;;;;;;4.75;2.00;;;;;;;14.07;100.00;100186.06;4979874;28;20031;-84
2021/08/05 05:55:41;;;;;;;7.18;1.73;;;;;;;14.21;100.00;100187.25;4978556;28;20519;-84
2021/08/05 05:58:06;;;;;;;6.13;1.98;;;;;;;14.19;100.00;100188.22;4978827;28;20042;-84
2021/08/05 06:00:32;;;;;;;5.68;1.75;;;;;;;14.17;100.00;100185.69;4979447;28;20027;-84
2021/08/05 06:02:57;;;;;;;6.25;1.92;;;;;;;14.67;100.00;100185.44;4982022;28;20400;-84
2021/08/05 06:05:22;;;;;;;4.78;1.90;;;;;;;14.50;100.00;100185.22;4980538;28;20027;-83
2021/08/05 06:07:49;;;;;;;5.00;1.70;;;;;;;14.91;100.00;100196.63;4981284;28;20046;-83
2021/08/05 06:10:17;;;;;;;3.55;1.55;;;;;;;15.66;100.00;100189.88;4980140;28;20025;-84
2021/08/05 06:12:43;;;;;;;5.13;1.73;;;;;;;16.12;100.00;100195.66;4979321;28;20114;-84
2021/08/05 06:15:10;;;;;;;4.90;1.98;;;;;;;15.64;100.00;100186.53;4979975;28;20050;-84
2021/08/05 06:17:36;;;;;;;6.55;1.70;;;;;;;15.52;100.00;100187.06;4981233;28;20026;-84
2021/08/05 06:20:03;;;;;;;4.95;1.58;;;;;;;16.04;100.00;100188.19;4979266;28;20491;-83
2021/08/05 06:22:29;;;;;;;6.13;1.90;;;;;;;16.73;100.00;100182.22;4979733;28;20033;-84
2021/08/05 06:24:54;;;;;;;7.93;2.00;;;;;;;16.83;100.00;100181.78;4978750;28;20030;-83
2021/08/05 06:27:22;;;;;;;5.18;1.90;;;;;;;17.10;100.00;100183.00;4982259;28;20081;-83
2021/08/05 06:29:47;;;;;;;4.22;1.92;;;;;;;16.91;100.00;100190.97;4980842;28;20027;-83
2021/08/05 06:32:13;;;;;;;6.72;2.17;;;;;;;17.07;100.00;100182.34;4978501;28;20022;-83
2021/08/05 06:34:38;;;;;;;4.90;1.90;;;;;;;17.10;99.27;100180.41;4978730;28;20038;-83
2021/08/05 06:37:04;;;;;;;7.57;2.00;;;;;;;17.22;99.59;100189.41;4980291;28;20418;-83
2021/08/05 06:39:29;;;;;;;4.38;2.00;;;;;;;16.80;98.51;100186.25;4979999;28;20030;-83
2021/08/05 06:41:54;;;;;;;6.47;2.50;;;;;;;16.87;99.85;100191.19;4978097;28;20061;-83
2021/08/05 06:44:19;;;;;;;6.07;2.60;;;;;;;16.89;99.50;100184.09;4981034;28;20038;-83
2021/08/05 06:46:45;;;;;;;5.22;2.30;;;;;;;16.72;99.51;100191.00;4980605;28;20027;-82
2021/08/05 06:49:10;;;;;;;4.85;1.88;;;;;;;17.08;97.60;100184.00;4980007;28;20101;-84
2021/08/05 06:51:35;;;;;;;5.55;1.90;;;;;;;17.53;94.93;100188.66;4977494;28;20030;-83
2021/08/05 06:54:00;;;;;;;4.38;1.92;;;;;;;17.91;90.11;100183.13;4978974;28;20022;-83
2021/08/05 06:56:26;;;;;;;6.15;1.83;;;;;;;17.76;91.70;100191.81;4978598;28;20110;-83
2021/08/05 06:58:51;;;;;;;4.53;2.05;;;;;;;17.91;91.53;100186.59;4977387;28;20019;-84
2021/08/05 07:01:17;;;;;;;7.00;2.00;;;;;;;17.40;92.51;100196.31;4979211;28;20074;-84
2021/08/05 07:03:42;;;;;;;6.68;2.00;;;;;;;17.67;91.26;100196.63;4980939;28;20086;-84
2021/08/05 07:06:07;;;;;;;4.63;1.65;;;;;;;17.61;94.46;100191.72;4978786;28;20139;-84
2021/08/05 07:08:34;;;;;;;4.72;1.67;;;;;;;18.05;89.94;100188.47;4977450;28;20523;-84
2021/08/05 07:10:59;;;;;;;7.43;2.25;;;;;;;18.02;91.79;100180.78;4978791;28;20023;-84
2021/08/05 07:13:24;;;;;;;5.85;2.00;;;;;;;17.63;92.23;100189.84;4980896;28;20388;-84
2021/08/05 07:15:50;;;;;;;6.15;2.58;;;;;;;18.17;88.73;100177.31;4980085;28;20121;-84
2021/08/05 07:18:15;;;;;;;7.38;2.05;;;;;;;19.13;84.63;100177.94;4979826;28;20029;-84
2021/08/05 07:20:40;;;;;;;7.00;2.53;;;;;;;18.57;88.45;100182.94;4978744;28;20041;-83
2021/08/05 07:23:06;;;;;;;4.90;2.03;;;;;;;18.28;90.10;100181.09;4981640;28;20054;-84
2021/08/05 07:25:31;;;;;;;7.72;2.25;;;;;;;18.38;90.92;100177.00;4975070;28;20429;-85
2021/08/05 07:28:00;;;;;;;4.82;2.17;;;;;;;18.16;92.02;100183.50;4974883;28;20027;-85
2021/08/05 07:30:25;;;;;;;6.65;2.20;;;;;;;18.24;93.47;100187.47;4974477;28;20105;-84
2021/08/05 07:32:51;;;;;;;4.90;2.05;;;;;;;18.20;94.07;100188.56;4975351;28;20065;-85
2021/08/05 07:35:16;;;;;;;7.60;2.45;;;;;;;17.66;97.45;100192.28;4975616;28;20030;-85
2021/08/05 07:37:42;;;;;;;5.68;2.50;;;;;;;17.84;97.42;100198.38;4974313;28;20077;-85
2021/08/05 07:40:07;;;;;;;6.05;2.58;;;;;;;17.75;98.57;100198.00;4974121;28;20030;-85
2021/08/05 07:42:33;;;;;;;4.50;2.08;;;;;;;17.98;97.97;100204.63;4976422;28;20033;-84
2021/08/05 07:44:58;;;;;;;10.10;2.58;;;;;;;17.44;100.00;100199.63;4974560;28;20042;-84
2021/08/05 07:47:24;;;;;;;4.82;2.25;;;;;;;17.47;100.00;100199.47;4978293;28;20026;-83
2021/08/05 07:49:50;;;;;;;9.98;2.90;;;;;;;17.54;100.00;100195.56;4978874;28;20023;-84
2021/08/05 07:52:15;;;;;;;5.30;2.40;;;;;;;16.84;100.00;100201.81;4985232;28;20027;-84
2021/08/05 07:54:40;;;;;;;5.80;2.50;;;;;;;17.06;100.00;100189.34;4982493;28;20038;-84
2021/08/05 07:57:06;;;;;;;7.18;2.60;;;;;;;17.16;100.00;100195.81;4982500;28;20027;-84
2021/08/05 07:59:31;;;;;;;7.97;2.30;;;;;;;17.33;100.00;100188.84;4989538;28;20026;-83
2021/08/05 08:01:56;;;;;;;5.97;2.58;;;;;;;17.38;100.00;100187.66;4989485;28;20031;-83
2021/08/05 08:04:22;;;;;;;5.10;2.25;;;;;;;17.53;100.00;100183.41;4989876;28;20031;-82
2021/08/05 08:06:47;;;;;;;6.65;2.67;;;;;;;17.91;100.00;100183.97;4991590;28;20034;-82
2021/08/05 08:09:12;;;;;;;5.78;2.45;;;;;;;18.10;100.00;100178.59;4990538;28;20095;-83
2021/08/05 08:11:37;;;;;;;6.40;2.35;;;;;;;17.71;100.00;100179.78;4991592;28;20031;-83
2021/08/05 08:14:03;;;;;;;4.65;2.08;;;;;;;17.89;100.00;100179.78;4992232;28;20031;-82
2021/08/05 08:16:28;;;;;;;8.77;2.47;;;;;;;17.83;100.00;100172.22;4991698;28;20090;-83
2021/08/05 08:18:54;;;;;;;6.90;2.60;;;;;;;18.17;100.00;100184.34;4989952;28;20098;-83
2021/08/05 08:21:19;;;;;;;8.05;2.35;;;;;;;18.53;98.81;100172.66;4990025;28;20023;-82
2021/08/05 08:23:46;;;;;;;7.78;2.33;;;;;;;18.08;100.00;100167.31;4990176;28;20023;-82
2021/08/05 08:26:11;;;;;;;6.93;2.50;;;;;;;18.40;99.57;100164.66;4991599;28;20077;-82
2021/08/05 08:28:37;;;;;;;7.03;2.55;;;;;;;18.91;96.93;100170.47;4990961;28;20030;-82
2021/08/05 08:31:03;;;;;;;4.88;2.22;;;;;;;19.63;93.43;100170.53;4992070;28;20033;-82
2021/08/05 08:33:28;;;;;;;6.22;2.58;;;;;;;19.83;93.34;100170.16;4989352;28;20023;-83
2021/08/05 08:35:54;;;;;;;5.85;2.75;;;;;;;18.88;93.77;100167.19;4990062;28;20027;-83
2021/08/05 08:38:22;;;;;;;6.28;2.20;;;;;;;18.75;95.10;100167.91;4991465;28;20090;-82
2021/08/05 08:40:48;;;;;;;4.85;2.28;;;;;;;18.89;95.38;100164.47;4989412;28;20067;-83
2021/08/05 08:43:13;;;;;;;5.72;2.38;;;;;;;18.75;95.25;100170.53;4989928;28;20026;-82
2021/08/05 08:45:39;;;;;;;5.82;2.88;;;;;;;19.56;90.23;100172.69;4994646;28;20031;-82
2021/08/05 08:48:06;;;;;;;6.88;2.83;;;;;;;19.91;88.52;100164.41;4993767;28;20069;-82
2021/08/05 08:50:33;;;;;;;8.07;2.70;;;;;;;21.14;80.75;100162.47;4994124;28;20050;-82
2021/08/05 08:53:03;;;;;;;6.35;2.85;;;;;;;21.06;80.63;100167.41;4993740;28;20054;-83
2021/08/05 08:55:30;;;;;;;6.38;2.85;;;;;;;21.72;76.25;100165.50;4994350;28;20022;-83
2021/08/05 08:57:59;;;;;;;10.57;3.30;;;;;;;22.22;72.10;100169.81;4993473;28;20026;-83
2021/08/05 09:00:24;;;;;;;6.50;2.42;;;;;;;21.14;76.84;100157.19;4991784;28;20165;-82
2021/08/05 09:02:49;;;;;;;7.75;2.50;;;;;;;22.04;75.79;100157.91;4992860;28;20031;-82
2021/08/05 09:05:15;;;;;;;7.80;2.63;;;;;;;22.05;75.44;100156.97;4994359;28;20071;-83
2021/08/05 09:07:43;;;;;;;7.63;2.92;;;;;;;21.55;77.99;100154.34;4993954;28;20061;-83
2021/08/05 09:10:09;;;;;;;6.63;2.88;;;;;;;22.18;74.42;100159.59;4993224;28;20051;-83
2021/08/05 09:12:35;;;;;;;5.90;2.45;;;;;;;21.56;79.47;100158.66;4990518;28;20023;-83
2021/08/05 09:15:00;;;;;;;7.63;2.45;;;;;;;21.64;76.80;100152.00;4992957;28;20038;-83
2021/08/05 09:17:32;;;;;;;7.88;2.60;;;;;;;21.60;76.26;100154.00;4992456;28;20030;-83
2021/08/05 09:20:00;;;;;;;5.20;2.50;;;;;;;22.08;75.29;100151.47;4990982;28;20034;-83
2021/08/05 09:22:40;;;;;;;7.78;2.55;;;;;;;24.07;69.13;100141.47;4994164;28;20031;-83
2021/08/05 09:25:18;;;;;;;5.13;2.42;;;;;;;22.93;71.72;100146.03;4990781;28;20030;-83
2021/08/05 09:27:45;;;;;;;5.57;2.40;;;;;;;22.18;70.53;100139.28;4993337;28;20046;-82
2021/08/05 09:30:10;;;;;;;6.15;2.55;;;;;;;21.49;76.51;100138.94;4991086;28;20023;-83
2021/08/05 09:32:36;;;;;;;6.43;2.50;;;;;;;21.26;78.44;100145.78;4992757;28;20030;-83
2021/08/05 09:35:10;;;;;;;10.68;3.28;;;;;;;21.33;77.96;100140.94;4991664;28;20023;-83
2021/08/05 09:37:37;;;;;;;7.95;2.45;;;;;;;21.34;79.23;100135.56;4993586;28;20027;-83
2021/08/05 09:40:13;;;;;;;5.45;2.67;;;;;;;21.36;75.65;100133.66;4993345;28;20026;-83
2021/08/05 09:42:38;;;;;;;8.13;2.50;;;;;;;21.65;79.54;100146.63;4992304;28;20023;-83
2021/08/05 09:45:06;;;;;;;9.95;3.00;;;;;;;22.01;75.29;100129.06;4992657;28;20034;-83
2021/08/05 09:47:41;;;;;;;6.57;2.63;;;;;;;23.54;68.09;100130.72;4993285;28;20018;-83
2021/08/05 09:50:07;;;;;;;6.00;2.30;;;;;;;23.39;68.89;100122.16;4994125;28;20015;-83
2021/08/05 09:52:35;;;;;;;6.82;2.78;;;;;;;23.49;67.76;100124.94;4995153;28;20023;-83
2021/08/05 09:55:03;;;;;;;9.65;2.80;;;;;;;24.48;64.27;100118.72;4995423;28;20029;-83
2021/08/05 09:57:32;;;;;;;5.53;2.30;;;;;;;23.04;67.09;100105.56;4993974;28;20034;-83
2021/08/05 09:59:58;;;;;;;5.75;2.60;;;;;;;23.97;65.03;100103.44;4994648;28;20050;-83
2021/08/05 10:02:25;;;;;;;5.43;2.30;;;;;;;23.64;65.75;100089.28;4995248;28;20027;-83
2021/08/05 10:04:52;;;;;;;6.47;2.75;;;;;;;23.24;70.40;100096.06;4994313;28;20023;-83
2021/08/05 10:07:18;;;;;;;6.70;2.72;;;;;;;24.03;66.91;100097.66;4996703;28;20026;-83
2021/08/05 10:09:44;;;;;;;5.90;2.30;;;;;;;24.24;67.66;100094.22;4997530;28;20027;-83
2021/08/05 10:12:14;;;;;;;5.43;2.30;;;;;;;23.06;66.90;100093.06;4995641;28;20022;-83
2021/08/05 10:14:39;;;;;;;5.60;2.30;;;;;;;23.34;69.96;100094.41;4995599;28;20046;-83
2021/08/05 10:17:06;;;;;;;6.13;2.30;;;;;;;23.55;66.53;100090.06;4996947;28;20027;-83
2021/08/05 10:19:36;;;;;;;5.88;2.53;;;;;;;24.14;64.71;100091.50;4997600;28;20082;-83
2021/08/05 10:22:02;;;;;;;7.57;2.92;;;;;;;22.73;69.49;100092.88;4996403;28;20050;-83
2021/08/05 10:24:28;;;;;;;5.72;2.42;;;;;;;22.11;71.34;100087.84;4996276;28;20038;-83
2021/08/05 10:26:53;;;;;;;5.65;2.40;;;;;;;21.80;72.77;100078.69;4995505;28;20018;-83
2021/08/05 10:29:19;;;;;;;6.72;2.55;;;;;;;21.60;73.35;100082.75;4995681;28;20026;-82
2021/08/05 10:31:45;;;;;;;7.30;2.60;;;;;;;20.56;78.22;100088.16;4995650;28;20069;-83
2021/08/05 10:34:12;;;;;;;5.10;2.20;;;;;;;21.21;76.83;100087.22;4995603;28;20030;-83
2021/08/05 10:36:38;;;;;;;5.40;2.75;;;;;;;21.45;71.74;100074.13;4995959;28;20019;-82
2021/08/05 10:39:04;;;;;;;5.43;2.28;;;;;;;21.38;76.30;100079.00;4995278;28;20010;-83
2021/08/05 10:41:31;;;;;;;5.50;2.45;;;;;;;21.27;78.00;100084.16;4995647;28;20030;-83
2021/08/05 10:43:58;;;;;;;6.28;2.35;;;;;;;21.13;76.88;100085.13;4995609;28;20023;-83
2021/08/05 10:46:24;;;;;;;5.68;1.88;;;;;;;20.33;78.49;100083.59;4994717;28;20491;-82
2021/08/05 10:48:50;;;;;;;6.70;2.30;;;;;;;20.89;77.36;100073.66;4995068;28;20019;-83
2021/08/05 10:51:15;;;;;;;7.82;2.30;;;;;;;20.76;76.51;100081.56;4994970;28;20027;-83
2021/08/05 10:53:44;;;;;;;5.10;2.08;;;;;;;21.32;75.78;100075.94;4994742;28;20031;-82
2021/08/05 10:56:32;;;;;;;5.30;2.20;;;;;;;21.40;74.67;100070.13;4995575;28;20031;-83
2021/08/05 10:59:00;;;;;;;5.78;2.38;;;;;;;21.13;75.98;100065.84;4994494;28;20055;-83
2021/08/05 11:01:48;;;;;;;7.82;2.30;;;;;;;21.25;73.51;100053.59;4995704;28;20027;-83
2021/08/05 11:04:32;;;;;;;6.00;2.10;;;;;;;20.84;74.96;100063.44;4994682;28;20027;-83
2021/08/05 11:07:24;;;;;;;9.60;2.30;;;;;;;20.94;73.57;100055.75;4994097;28;20018;-83
2021/08/05 11:09:51;;;;;;;7.15;2.20;;;;;;;21.00;71.05;100050.03;4995140;28;20026;-83
2021/08/05 11:12:42;;;;;;;5.47;2.08;;;;;;;21.40;70.36;100049.91;4994831;28;20022;-83
2021/08/05 11:15:19;;;;;;;4.30;1.90;;;;;;;21.67;72.40;100049.69;4994528;28;20095;-83
2021/08/05 11:18:25;;;;;;;4.00;1.83;;;;;;;21.25;71.36;100046.50;4995192;28;20014;-83